sensor_id;sensor_type;location;lat;lon;timestamp;pressure;altitude;pressure_sealevel;temperature;humidity
29535;BME280;72082;52.650;8.116;2023-12-07T00:01:44;101574.06;;;2.79;100.00
29535;BME280;72082;52.650;8.116;2023-12-07T00:04:09;101579.13;;;2.79;100.00
29535;BME280;72082;52.650;8.116;2023-12-07T00:06:34;101575.78;;;2.80;100.00
29535;BME280;72082;52.650;8.116;2023-12-07T00:08:59;101580.06;;;2.81;100.00
29535;BME280;72082;52.650;8.116;2023-12-07T00:11:24;101570.72;;;2.80;100.00
29535;BME280;72082;52.650;8.116;2023-12-07T00:13:50;101569.00;;;2.79;100.00
29535;BME280;72082;52.650;8.116;2023-12-07T00:16:15;101576.53;;;2.77;100.00
29535;BME280;72082;52.650;8.116;2023-12-07T00:18:40;101570.59;;;2.77;100.00
29535;BME280;72082;52.650;8.116;2023-12-07T00:21:08;101581.53;;;2.76;100.00
29535;BME280;72082;52.650;8.116;2023-12-07T00:23:33;101590.00;;;2.76;100.00
29535;BME280;72082;52.650;8.116;2023-12-07T00:25:58;101598.41;;;2.77;100.00
29535;BME280;72082;52.650;8.116;2023-12-07T00:28:23;101592.56;;;2.78;100.00
29535;BME280;72082;52.650;8.116;2023-12-07T00:30:49;101605.22;;;2.78;100.00
29535;BME280;72082;52.650;8.116;2023-12-07T00:33:14;101598.38;;;2.75;100.00
29535;BME280;72082;52.650;8.116;2023-12-07T00:35:39;101599.25;;;2.76;100.00
29535;BME280;72082;52.650;8.116;2023-12-07T00:38:04;101602.66;;;2.76;100.00
29535;BME280;72082;52.650;8.116;2023-12-07T00:40:29;101607.63;;;2.75;100.00
29535;BME280;72082;52.650;8.116;2023-12-07T00:42:54;101597.50;;;2.75;100.00
29535;BME280;72082;52.650;8.116;2023-12-07T00:45:20;101596.63;;;2.74;100.00
29535;BME280;72082;52.650;8.116;2023-12-07T00:47:45;101596.56;;;2.73;100.00
29535;BME280;72082;52.650;8.116;2023-12-07T00:50:14;101595.78;;;2.74;100.00
29535;BME280;72082;52.650;8.116;2023-12-07T00:52:39;101607.63;;;2.75;100.00
29535;BME280;72082;52.650;8.116;2023-12-07T00:55:05;101601.63;;;2.73;100.00
29535;BME280;72082;52.650;8.116;2023-12-07T00:57:30;101602.50;;;2.73;100.00
29535;BME280;72082;52.650;8.116;2023-12-07T00:59:55;101610.97;;;2.74;100.00
29535;BME280;72082;52.650;8.116;2023-12-07T01:02:20;101612.63;;;2.73;100.00
29535;BME280;72082;52.650;8.116;2023-12-07T01:04:46;101615.16;;;2.73;100.00
29535;BME280;72082;52.650;8.116;2023-12-07T01:07:12;101618.56;;;2.74;100.00
29535;BME280;72082;52.650;8.116;2023-12-07T01:09:37;101616.88;;;2.74;100.00
29535;BME280;72082;52.650;8.116;2023-12-07T01:12:02;101612.69;;;2.75;100.00
29535;BME280;72082;52.650;8.116;2023-12-07T01:14:27;101619.47;;;2.76;100.00
29535;BME280;72082;52.650;8.116;2023-12-07T01:16:53;101618.63;;;2.75;100.00
29535;BME280;72082;52.650;8.116;2023-12-07T01:19:18;101613.56;;;2.75;100.00
29535;BME280;72082;52.650;8.116;2023-12-07T01:21:43;101613.59;;;2.77;100.00
29535;BME280;72082;52.650;8.116;2023-12-07T01:24:09;101612.81;;;2.78;100.00
29535;BME280;72082;52.650;8.116;2023-12-07T01:26:34;101610.25;;;2.76;100.00
29535;BME280;72082;52.650;8.116;2023-12-07T01:28:59;101613.56;;;2.75;100.00
29535;BME280;72082;52.650;8.116;2023-12-07T01:31:24;101610.97;;;2.74;100.00
29535;BME280;72082;52.650;8.116;2023-12-07T01:33:50;101616.03;;;2.74;100.00
29535;BME280;72082;52.650;8.116;2023-12-07T01:36:15;101613.41;;;2.72;100.00
29535;BME280;72082;52.650;8.116;2023-12-07T01:38:40;101614.19;;;2.71;100.00
29535;BME280;72082;52.650;8.116;2023-12-07T01:41:05;101637.84;;;2.72;100.00
29535;BME280;72082;52.650;8.116;2023-12-07T01:43:31;101640.38;;;2.72;100.00
29535;BME280;72082;52.650;8.116;2023-12-07T01:45:57;101642.91;;;2.72;100.00
29535;BME280;72082;52.650;8.116;2023-12-07T01:48:24;101642.13;;;2.73;100.00
29535;BME280;72082;52.650;8.116;2023-12-07T01:50:51;101644.66;;;2.73;100.00
29535;BME280;72082;52.650;8.116;2023-12-07T01:53:16;101649.72;;;2.73;100.00
29535;BME280;72082;52.650;8.116;2023-12-07T01:55:42;101643.88;;;2.74;100.00
29535;BME280;72082;52.650;8.116;2023-12-07T01:58:07;101644.66;;;2.73;100.00
29535;BME280;72082;52.650;8.116;2023-12-07T02:00:34;101647.19;;;2.73;100.00
29535;BME280;72082;52.650;8.116;2023-12-07T02:03:00;101647.97;;;2.72;100.00
29535;BME280;72082;52.650;8.116;2023-12-07T02:07:55;101644.38;;;2.67;100.00
29535;BME280;72082;52.650;8.116;2023-12-07T02:10:20;101646.00;;;2.65;100.00
29535;BME280;72082;52.650;8.116;2023-12-07T02:12:46;101640.91;;;2.65;100.00
29535;BME280;72082;52.650;8.116;2023-12-07T02:15:12;101645.94;;;2.63;100.00
29535;BME280;72082;52.650;8.116;2023-12-07T02:23:00;101643.31;;;2.62;100.00
29535;BME280;72082;52.650;8.116;2023-12-07T02:25:36;101649.19;;;2.61;100.00
29535;BME280;72082;52.650;8.116;2023-12-07T02:28:02;101644.91;;;2.60;100.00
29535;BME280;72082;52.650;8.116;2023-12-07T02:30:27;101650.03;;;2.61;100.00
29535;BME280;72082;52.650;8.116;2023-12-07T02:32:52;101641.66;;;2.62;100.00
29535;BME280;72082;52.650;8.116;2023-12-07T02:35:17;101649.31;;;2.64;100.00
29535;BME280;72082;52.650;8.116;2023-12-07T02:37:49;101645.13;;;2.64;100.00
29535;BME280;72082;52.650;8.116;2023-12-07T02:40:23;101645.19;;;2.66;100.00
29535;BME280;72082;52.650;8.116;2023-12-07T02:42:49;101637.59;;;2.66;100.00
29535;BME280;72082;52.650;8.116;2023-12-07T02:45:15;101638.44;;;2.66;100.00
29535;BME280;72082;52.650;8.116;2023-12-07T02:47:40;101641.78;;;2.65;100.00
29535;BME280;72082;52.650;8.116;2023-12-07T02:50:07;101649.38;;;2.65;100.00
29535;BME280;72082;52.650;8.116;2023-12-07T02:52:33;101652.78;;;2.66;100.00
29535;BME280;72082;52.650;8.116;2023-12-07T02:54:58;101652.78;;;2.66;100.00
29535;BME280;72082;52.650;8.116;2023-12-07T02:57:24;101662.91;;;2.66;100.00
29535;BME280;72082;52.650;8.116;2023-12-07T02:59:49;101661.22;;;2.66;100.00
29535;BME280;72082;52.650;8.116;2023-12-07T03:02:14;101661.16;;;2.65;100.00
29535;BME280;72082;52.650;8.116;2023-12-07T03:04:39;101668.81;;;2.66;100.00
29535;BME280;72082;52.650;8.116;2023-12-07T03:07:05;101662.03;;;2.65;100.00
29535;BME280;72082;52.650;8.116;2023-12-07T03:09:30;101661.13;;;2.63;100.00
29535;BME280;72082;52.650;8.116;2023-12-07T03:11:55;101662.78;;;2.63;100.00
29535;BME280;72082;52.650;8.116;2023-12-07T03:14:20;101661.03;;;2.62;100.00
29535;BME280;72082;52.650;8.116;2023-12-07T03:16:45;101661.03;;;2.62;100.00
29535;BME280;72082;52.650;8.116;2023-12-07T03:19:12;101660.16;;;2.61;100.00
29535;BME280;72082;52.650;8.116;2023-12-07T03:21:41;101659.31;;;2.61;100.00
29535;BME280;72082;52.650;8.116;2023-12-07T03:24:07;101660.88;;;2.59;100.00
29535;BME280;72082;52.650;8.116;2023-12-07T03:26:32;101664.28;;;2.59;100.00
29535;BME280;72082;52.650;8.116;2023-12-07T03:28:57;101666.81;;;2.59;100.00
29535;BME280;72082;52.650;8.116;2023-12-07T03:31:23;101665.94;;;2.59;100.00
29535;BME280;72082;52.650;8.116;2023-12-07T03:33:48;101665.09;;;2.58;100.00
29535;BME280;72082;52.650;8.116;2023-12-07T03:36:13;101655.00;;;2.58;100.00
29535;BME280;72082;52.650;8.116;2023-12-07T03:38:38;101659.19;;;2.58;100.00
29535;BME280;72082;52.650;8.116;2023-12-07T03:41:04;101663.28;;;2.56;100.00
29535;BME280;72082;52.650;8.116;2023-12-07T03:43:29;101660.75;;;2.56;100.00
29535;BME280;72082;52.650;8.116;2023-12-07T03:45:54;101670.03;;;2.55;100.00
29535;BME280;72082;52.650;8.116;2023-12-07T03:48:19;101664.97;;;2.55;100.00
29535;BME280;72082;52.650;8.116;2023-12-07T03:50:45;101665.75;;;2.54;100.00
29535;BME280;72082;52.650;8.116;2023-12-07T03:53:10;101678.41;;;2.54;100.00
29535;BME280;72082;52.650;8.116;2023-12-07T03:55:35;101669.94;;;2.54;100.00
29535;BME280;72082;52.650;8.116;2023-12-07T03:58:00;101680.06;;;2.54;100.00
29535;BME280;72082;52.650;8.116;2023-12-07T04:00:26;101682.59;;;2.54;100.00
29535;BME280;72082;52.650;8.116;2023-12-07T04:02:51;101684.34;;;2.55;100.00
29535;BME280;72082;52.650;8.116;2023-12-07T04:05:16;101685.19;;;2.55;100.00
29535;BME280;72082;52.650;8.116;2023-12-07T04:07:41;101689.41;;;2.55;100.00
29535;BME280;72082;52.650;8.116;2023-12-07T04:10:07;101691.09;;;2.56;100.00
29535;BME280;72082;52.650;8.116;2023-12-07T04:12:32;101683.50;;;2.56;100.00
29535;BME280;72082;52.650;8.116;2023-12-07T04:14:57;101688.56;;;2.56;100.00
29535;BME280;72082;52.650;8.116;2023-12-07T04:17:22;101674.22;;;2.55;100.00
29535;BME280;72082;52.650;8.116;2023-12-07T04:19:48;101679.28;;;2.55;100.00
29535;BME280;72082;52.650;8.116;2023-12-07T04:22:13;101675.94;;;2.56;100.00
29535;BME280;72082;52.650;8.116;2023-12-07T04:24:38;101675.09;;;2.55;100.00
29535;BME280;72082;52.650;8.116;2023-12-07T04:27:04;101676.75;;;2.55;100.00
29535;BME280;72082;52.650;8.116;2023-12-07T04:29:29;101671.69;;;2.55;100.00
29535;BME280;72082;52.650;8.116;2023-12-07T04:31:54;101679.28;;;2.55;100.00
29535;BME280;72082;52.650;8.116;2023-12-07T04:34:19;101672.56;;;2.55;100.00
29535;BME280;72082;52.650;8.116;2023-12-07T04:36:44;101680.94;;;2.54;100.00
29535;BME280;72082;52.650;8.116;2023-12-07T04:39:10;101678.41;;;2.54;100.00
29535;BME280;72082;52.650;8.116;2023-12-07T04:41:35;101681.81;;;2.55;100.00
29535;BME280;72082;52.650;8.116;2023-12-07T04:44:00;101685.13;;;2.54;100.00
29535;BME280;72082;52.650;8.116;2023-12-07T04:46:25;101683.41;;;2.53;100.00
29535;BME280;72082;52.650;8.116;2023-12-07T04:48:50;101689.25;;;2.52;100.00
29535;BME280;72082;52.650;8.116;2023-12-07T04:51:16;101693.44;;;2.51;100.00
29535;BME280;72082;52.650;8.116;2023-12-07T04:53:41;101687.50;;;2.50;100.00
29535;BME280;72082;52.650;8.116;2023-12-07T04:56:06;101687.44;;;2.49;100.00
29535;BME280;72082;52.650;8.116;2023-12-07T04:58:32;101687.31;;;2.46;100.00
29535;BME280;72082;52.650;8.116;2023-12-07T05:00:57;101688.13;;;2.45;100.00
29535;BME280;72082;52.650;8.116;2023-12-07T05:03:22;101689.84;;;2.46;100.00
29535;BME280;72082;52.650;8.116;2023-12-07T05:05:47;101686.53;;;2.47;100.00
29535;BME280;72082;52.650;8.116;2023-12-07T05:08:12;101694.16;;;2.48;100.00
29535;BME280;72082;52.650;8.116;2023-12-07T05:10:38;101693.28;;;2.48;100.00
29535;BME280;72082;52.650;8.116;2023-12-07T05:13:03;101689.09;;;2.48;100.00
29535;BME280;72082;52.650;8.116;2023-12-07T05:15:28;101691.63;;;2.48;100.00
29535;BME280;72082;52.650;8.116;2023-12-07T05:17:53;101692.47;;;2.47;100.00
29535;BME280;72082;52.650;8.116;2023-12-07T05:20:18;101690.75;;;2.48;100.00
29535;BME280;72082;52.650;8.116;2023-12-07T05:22:44;101694.16;;;2.48;100.00
29535;BME280;72082;52.650;8.116;2023-12-07T05:25:09;101692.47;;;2.47;100.00
29535;BME280;72082;52.650;8.116;2023-12-07T05:27:34;101693.25;;;2.46;100.00
29535;BME280;72082;52.650;8.116;2023-12-07T05:29:59;101694.91;;;2.46;100.00
29535;BME280;72082;52.650;8.116;2023-12-07T05:32:24;101696.56;;;2.45;100.00
29535;BME280;72082;52.650;8.116;2023-12-07T05:34:50;101694.03;;;2.45;100.00
29535;BME280;72082;52.650;8.116;2023-12-07T05:37:15;101695.78;;;2.46;100.00
29535;BME280;72082;52.650;8.116;2023-12-07T05:39:40;101695.78;;;2.46;100.00
29535;BME280;72082;52.650;8.116;2023-12-07T05:42:05;101697.38;;;2.44;100.00
29535;BME280;72082;52.650;8.116;2023-12-07T05:44:31;101694.75;;;2.43;100.00
29535;BME280;72082;52.650;8.116;2023-12-07T05:46:56;101697.16;;;2.40;100.00
29535;BME280;72082;52.650;8.116;2023-12-07T05:49:21;101700.50;;;2.39;100.00
29535;BME280;72082;52.650;8.116;2023-12-07T05:51:46;101707.19;;;2.38;100.00
29535;BME280;72082;52.650;8.116;2023-12-07T05:54:12;101707.19;;;2.38;100.00
29535;BME280;72082;52.650;8.116;2023-12-07T05:56:37;101704.81;;;2.41;100.00
29535;BME280;72082;52.650;8.116;2023-12-07T05:59:02;101704.81;;;2.41;100.00
29535;BME280;72082;52.650;8.116;2023-12-07T06:01:27;101702.34;;;2.43;100.00
29535;BME280;72082;52.650;8.116;2023-12-07T06:03:52;101707.41;;;2.43;100.00
29535;BME280;72082;52.650;8.116;2023-12-07T06:06:18;101708.28;;;2.43;100.00
29535;BME280;72082;52.650;8.116;2023-12-07T06:08:43;101705.75;;;2.43;100.00
29535;BME280;72082;52.650;8.116;2023-12-07T06:11:08;101709.16;;;2.44;100.00
29535;BME280;72082;52.650;8.116;2023-12-07T06:13:33;101703.31;;;2.45;100.00
29535;BME280;72082;52.650;8.116;2023-12-07T06:15:59;101713.41;;;2.45;100.00
29535;BME280;72082;52.650;8.116;2023-12-07T06:18:24;101713.41;;;2.45;100.00
29535;BME280;72082;52.650;8.116;2023-12-07T06:20:49;101719.31;;;2.45;100.00
29535;BME280;72082;52.650;8.116;2023-12-07T06:23:15;101719.31;;;2.45;100.00
29535;BME280;72082;52.650;8.116;2023-12-07T06:25:40;101722.66;;;2.44;100.00
29535;BME280;72082;52.650;8.116;2023-12-07T06:28:05;101712.56;;;2.44;100.00
29535;BME280;72082;52.650;8.116;2023-12-07T06:30:31;101720.91;;;2.43;100.00
29535;BME280;72082;52.650;8.116;2023-12-07T06:32:56;101713.28;;;2.42;100.00
29535;BME280;72082;52.650;8.116;2023-12-07T06:35:21;101721.69;;;2.42;100.00
29535;BME280;72082;52.650;8.116;2023-12-07T06:37:46;101725.97;;;2.43;100.00
29535;BME280;72082;52.650;8.116;2023-12-07T06:40:12;101725.91;;;2.42;100.00
29535;BME280;72082;52.650;8.116;2023-12-07T06:42:37;101721.66;;;2.41;100.00
29535;BME280;72082;52.650;8.116;2023-12-07T06:45:03;101718.25;;;2.40;100.00
29535;BME280;72082;52.650;8.116;2023-12-07T06:47:28;101730.84;;;2.39;100.00
29535;BME280;72082;52.650;8.116;2023-12-07T06:49:54;101730.75;;;2.37;100.00
29535;BME280;72082;52.650;8.116;2023-12-07T06:52:19;101728.22;;;2.37;100.00
29535;BME280;72082;52.650;8.116;2023-12-07T06:54:44;101733.28;;;2.37;100.00
29535;BME280;72082;52.650;8.116;2023-12-07T06:57:10;101733.22;;;2.36;100.00
29535;BME280;72082;52.650;8.116;2023-12-07T06:59:35;101737.41;;;2.35;100.00
29535;BME280;72082;52.650;8.116;2023-12-07T07:02:00;101736.53;;;2.35;100.00
29535;BME280;72082;52.650;8.116;2023-12-07T07:04:26;101741.53;;;2.33;100.00
29535;BME280;72082;52.650;8.116;2023-12-07T07:06:51;101743.13;;;2.31;100.00
29535;BME280;72082;52.650;8.116;2023-12-07T07:09:16;101741.38;;;2.30;100.00
29535;BME280;72082;52.650;8.116;2023-12-07T07:11:42;101738.00;;;2.30;100.00
29535;BME280;72082;52.650;8.116;2023-12-07T07:14:11;101742.13;;;2.28;100.00
29535;BME280;72082;52.650;8.116;2023-12-07T07:16:36;101745.50;;;2.28;100.00
29535;BME280;72082;52.650;8.116;2023-12-07T07:19:01;101751.34;;;2.27;100.00
29535;BME280;72082;52.650;8.116;2023-12-07T07:21:28;101752.16;;;2.26;100.00
29535;BME280;72082;52.650;8.116;2023-12-07T07:23:53;101756.34;;;2.26;100.00
29535;BME280;72082;52.650;8.116;2023-12-07T07:26:18;101758.00;;;2.25;100.00
29535;BME280;72082;52.650;8.116;2023-12-07T07:28:44;101748.69;;;2.24;100.00
29535;BME280;72082;52.650;8.116;2023-12-07T07:31:09;101758.00;;;2.25;100.00
29535;BME280;72082;52.650;8.116;2023-12-07T07:33:34;101758.78;;;2.24;100.00
29535;BME280;72082;52.650;8.116;2023-12-07T07:36:00;101763.00;;;2.24;100.00
29535;BME280;72082;52.650;8.116;2023-12-07T07:38:25;101755.44;;;2.24;100.00
29535;BME280;72082;52.650;8.116;2023-12-07T07:40:50;101759.59;;;2.23;100.00
29535;BME280;72082;52.650;8.116;2023-12-07T07:43:16;101756.22;;;2.23;100.00
29535;BME280;72082;52.650;8.116;2023-12-07T07:45:41;101749.41;;;2.22;100.00
29535;BME280;72082;52.650;8.116;2023-12-07T07:48:06;101761.22;;;2.21;100.00
29535;BME280;72082;52.650;8.116;2023-12-07T07:50:31;101759.53;;;2.22;100.00
29535;BME280;72082;52.650;8.116;2023-12-07T07:52:56;101763.72;;;2.21;100.00
29535;BME280;72082;52.650;8.116;2023-12-07T07:55:22;101759.53;;;2.22;100.00
29535;BME280;72082;52.650;8.116;2023-12-07T07:57:47;101767.19;;;2.23;100.00
29535;BME280;72082;52.650;8.116;2023-12-07T08:00:13;101764.66;;;2.23;100.00
29535;BME280;72082;52.650;8.116;2023-12-07T08:02:38;101761.31;;;2.24;100.00
29535;BME280;72082;52.650;8.116;2023-12-07T08:05:04;101758.00;;;2.25;100.00
29535;BME280;72082;52.650;8.116;2023-12-07T08:07:29;101759.75;;;2.26;100.00
29535;BME280;72082;52.650;8.116;2023-12-07T08:09:54;101752.16;;;2.26;100.00
29535;BME280;72082;52.650;8.116;2023-12-07T08:12:19;101759.91;;;2.29;100.00
29535;BME280;72082;52.650;8.116;2023-12-07T08:14:44;101756.56;;;2.30;100.00
29535;BME280;72082;52.650;8.116;2023-12-07T08:17:11;101750.72;;;2.31;100.00
29535;BME280;72082;52.650;8.116;2023-12-07T08:19:36;101761.81;;;2.35;100.00
29535;BME280;72082;52.650;8.116;2023-12-07T08:22:01;101760.16;;;2.35;100.00
29535;BME280;72082;52.650;8.116;2023-12-07T08:24:27;101765.31;;;2.37;100.00
29535;BME280;72082;52.650;8.116;2023-12-07T08:26:52;101763.63;;;2.37;100.00
29535;BME280;72082;52.650;8.116;2023-12-07T08:29:17;101771.34;;;2.40;100.00
29535;BME280;72082;52.650;8.116;2023-12-07T08:31:42;101772.22;;;2.41;100.00
29535;BME280;72082;52.650;8.116;2023-12-07T08:34:08;101770.63;;;2.43;100.00
29535;BME280;72082;52.650;8.116;2023-12-07T08:36:33;101769.06;;;2.45;100.00
29535;BME280;72082;52.650;8.116;2023-12-07T08:38:58;101766.59;;;2.46;100.00
29535;BME280;72082;52.650;8.116;2023-12-07T08:41:24;101775.97;;;2.49;100.00
29535;BME280;72082;52.650;8.116;2023-12-07T08:43:49;101769.25;;;2.49;100.00
29535;BME280;72082;52.650;8.116;2023-12-07T08:46:15;101770.19;;;2.52;100.00
29535;BME280;72082;52.650;8.116;2023-12-07T08:48:41;101771.13;;;2.54;100.00
29535;BME280;72082;52.650;8.116;2023-12-07T08:51:06;101771.22;;;2.55;100.00
29535;BME280;72082;52.650;8.116;2023-12-07T08:53:31;101777.25;;;2.59;100.00
29535;BME280;72082;52.650;8.116;2023-12-07T08:55:56;101774.88;;;2.62;100.00
29535;BME280;72082;52.650;8.116;2023-12-07T08:58:22;101768.28;;;2.65;100.00
29535;BME280;72082;52.650;8.116;2023-12-07T09:00:47;101781.00;;;2.67;100.00
29535;BME280;72082;52.650;8.116;2023-12-07T09:03:12;101767.63;;;2.69;100.00
29535;BME280;72082;52.650;8.116;2023-12-07T09:05:37;101770.28;;;2.72;100.00
29535;BME280;72082;52.650;8.116;2023-12-07T09:08:03;101770.44;;;2.75;100.00
29535;BME280;72082;52.650;8.116;2023-12-07T09:10:29;101769.72;;;2.78;100.00
29535;BME280;72082;52.650;8.116;2023-12-07T09:12:54;101768.09;;;2.80;100.00
29535;BME280;72082;52.650;8.116;2023-12-07T09:15:20;101771.56;;;2.82;100.00
29535;BME280;72082;52.650;8.116;2023-12-07T09:17:45;101764.06;;;2.83;100.00
29535;BME280;72082;52.650;8.116;2023-12-07T09:20:11;101765.91;;;2.87;100.00
29535;BME280;72082;52.650;8.116;2023-12-07T09:22:36;101773.59;;;2.89;100.00
29535;BME280;72082;52.650;8.116;2023-12-07T09:25:01;101763.50;;;2.90;100.00
29535;BME280;72082;52.650;8.116;2023-12-07T09:27:26;101768.78;;;2.95;100.00
29535;BME280;72082;52.650;8.116;2023-12-07T09:29:52;101765.44;;;2.96;100.00
29535;BME280;72082;52.650;8.116;2023-12-07T09:32:17;101771.44;;;2.98;100.00
29535;BME280;72082;52.650;8.116;2023-12-07T09:34:42;101774.13;;;3.01;100.00
29535;BME280;72082;52.650;8.116;2023-12-07T09:37:08;101771.63;;;3.02;100.00
29535;BME280;72082;52.650;8.116;2023-12-07T09:39:34;101776.00;;;3.05;100.00
29535;BME280;72082;52.650;8.116;2023-12-07T09:41:59;101771.03;;;3.08;100.00
29535;BME280;72082;52.650;8.116;2023-12-07T09:44:25;101781.31;;;3.11;100.00
29535;BME280;72082;52.650;8.116;2023-12-07T09:46:50;101772.09;;;3.13;100.00
29535;BME280;72082;52.650;8.116;2023-12-07T09:49:16;101776.38;;;3.14;100.00
29535;BME280;72082;52.650;8.116;2023-12-07T09:51:42;101776.50;;;3.17;100.00
29535;BME280;72082;52.650;8.116;2023-12-07T09:54:08;101779.09;;;3.19;100.00
29535;BME280;72082;52.650;8.116;2023-12-07T09:56:34;101786.78;;;3.20;100.00
29535;BME280;72082;52.650;8.116;2023-12-07T09:58:59;101796.97;;;3.22;100.00
29535;BME280;72082;52.650;8.116;2023-12-07T10:01:28;101785.22;;;3.24;100.00
29535;BME280;72082;52.650;8.116;2023-12-07T10:04:16;101780.25;;;3.25;100.00
29535;BME280;72082;52.650;8.116;2023-12-07T10:06:44;101779.44;;;3.26;100.00
29535;BME280;72082;52.650;8.116;2023-12-07T10:09:10;101785.44;;;3.28;100.00
29535;BME280;72082;52.650;8.116;2023-12-07T10:11:35;101775.31;;;3.28;100.00
29535;BME280;72082;52.650;8.116;2023-12-07T10:14:00;101783.84;;;3.30;100.00
29535;BME280;72082;52.650;8.116;2023-12-07T10:16:25;101788.97;;;3.32;100.00
29535;BME280;72082;52.650;8.116;2023-12-07T10:18:51;101779.75;;;3.34;100.00
29535;BME280;72082;52.650;8.116;2023-12-07T10:21:16;101775.56;;;3.34;100.00
29535;BME280;72082;52.650;8.116;2023-12-07T10:23:42;101779.03;;;3.36;100.00
29535;BME280;72082;52.650;8.116;2023-12-07T10:26:07;101780.03;;;3.40;100.00
29535;BME280;72082;52.650;8.116;2023-12-07T10:28:35;101757.34;;;3.43;100.00
29535;BME280;72082;52.650;8.116;2023-12-07T10:31:01;101760.91;;;3.46;100.00
29535;BME280;72082;52.650;8.116;2023-12-07T10:33:26;101752.69;;;3.52;100.00
29535;BME280;72082;52.650;8.116;2023-12-07T10:35:51;101755.31;;;3.55;100.00
29535;BME280;72082;52.650;8.116;2023-12-07T10:38:16;101758.91;;;3.60;100.00
29535;BME280;72082;52.650;8.116;2023-12-07T10:40:42;101757.38;;;3.63;100.00
29535;BME280;72082;52.650;8.116;2023-12-07T10:43:08;101757.56;;;3.68;100.00
29535;BME280;72082;52.650;8.116;2023-12-07T10:45:34;101763.63;;;3.71;100.00
29535;BME280;72082;52.650;8.116;2023-12-07T10:48:05;101752.75;;;3.74;100.00
29535;BME280;72082;52.650;8.116;2023-12-07T10:50:37;101750.25;;;3.75;100.00
29535;BME280;72082;52.650;8.116;2023-12-07T10:53:12;101748.69;;;3.78;100.00
29535;BME280;72082;52.650;8.116;2023-12-07T10:55:47;101753.63;;;3.74;100.00
29535;BME280;72082;52.650;8.116;2023-12-07T10:58:16;101746.94;;;3.77;100.00
29535;BME280;72082;52.650;8.116;2023-12-07T11:00:45;101745.28;;;3.77;100.00
29535;BME280;72082;52.650;8.116;2023-12-07T11:03:10;101751.88;;;3.73;100.00
29535;BME280;72082;52.650;8.116;2023-12-07T11:05:36;101738.16;;;3.68;100.00
29535;BME280;72082;52.650;8.116;2023-12-07T11:08:09;101740.25;;;3.58;100.00
29535;BME280;72082;52.650;8.116;2023-12-07T11:10:47;101750.06;;;3.50;100.00
29535;BME280;72082;52.650;8.116;2023-12-07T11:13:24;101741.38;;;3.44;100.00
29535;BME280;72082;52.650;8.116;2023-12-07T11:15:52;101747.81;;;3.37;100.00
29535;BME280;72082;52.650;8.116;2023-12-07T11:18:17;101747.47;;;3.28;100.00
29535;BME280;72082;52.650;8.116;2023-12-07T11:20:44;101744.53;;;3.19;100.00
29535;BME280;72082;52.650;8.116;2023-12-07T11:23:10;101742.25;;;3.06;100.00
29535;BME280;72082;52.650;8.116;2023-12-07T11:25:38;101735.94;;;2.96;100.00
29535;BME280;72082;52.650;8.116;2023-12-07T11:28:05;101732.94;;;2.86;100.00
29535;BME280;72082;52.650;8.116;2023-12-07T11:30:32;101739.19;;;2.75;100.00
29535;BME280;72082;52.650;8.116;2023-12-07T11:32:59;101742.25;;;2.68;100.00
29535;BME280;72082;52.650;8.116;2023-12-07T11:35:24;101756.44;;;2.64;100.00
29535;BME280;72082;52.650;8.116;2023-12-07T11:38:03;101736.63;;;2.56;100.00
29535;BME280;72082;52.650;8.116;2023-12-07T11:40:30;101743.25;;;2.52;100.00
29535;BME280;72082;52.650;8.116;2023-12-07T11:42:55;101751.56;;;2.49;100.00
29535;BME280;72082;52.650;8.116;2023-12-07T11:45:46;101743.78;;;2.45;100.00
29535;BME280;72082;52.650;8.116;2023-12-07T11:48:13;101755.53;;;2.44;100.00
29535;BME280;72082;52.650;8.116;2023-12-07T11:53:36;101744.56;;;2.44;100.00
29535;BME280;72082;52.650;8.116;2023-12-07T11:56:06;101740.38;;;2.44;100.00
29535;BME280;72082;52.650;8.116;2023-12-07T11:58:33;101737.03;;;2.45;100.00
29535;BME280;72082;52.650;8.116;2023-12-07T12:00:59;101733.66;;;2.45;100.00
29535;BME280;72082;52.650;8.116;2023-12-07T12:03:25;101742.91;;;2.44;100.00
29535;BME280;72082;52.650;8.116;2023-12-07T12:05:51;101742.91;;;2.44;100.00
29535;BME280;72082;52.650;8.116;2023-12-07T12:08:17;101738.63;;;2.43;100.00
29535;BME280;72082;52.650;8.116;2023-12-07T12:10:42;101729.28;;;2.42;100.00
29535;BME280;72082;52.650;8.116;2023-12-07T12:13:08;101726.72;;;2.41;100.00
29535;BME280;72082;52.650;8.116;2023-12-07T12:15:33;101729.28;;;2.42;100.00
29535;BME280;72082;52.650;8.116;2023-12-07T12:17:59;101727.72;;;2.44;100.00
29535;BME280;72082;52.650;8.116;2023-12-07T12:20:25;101744.59;;;2.45;100.00
29535;BME280;72082;52.650;8.116;2023-12-07T12:22:51;101732.69;;;2.43;100.00
29535;BME280;72082;52.650;8.116;2023-12-07T12:25:17;101728.38;;;2.40;100.00
29535;BME280;72082;52.650;8.116;2023-12-07T12:27:43;101726.66;;;2.39;100.00
29535;BME280;72082;52.650;8.116;2023-12-07T12:30:08;101729.22;;;2.41;100.00
29535;BME280;72082;52.650;8.116;2023-12-07T12:32:44;101726.75;;;2.42;100.00
29535;BME280;72082;52.650;8.116;2023-12-07T12:35:09;101720.91;;;2.43;100.00
29535;BME280;72082;52.650;8.116;2023-12-07T12:37:34;101723.66;;;2.48;100.00
29535;BME280;72082;52.650;8.116;2023-12-07T12:40:08;101706.16;;;2.53;100.00
29535;BME280;72082;52.650;8.116;2023-12-07T12:42:34;101711.44;;;2.57;100.00
29535;BME280;72082;52.650;8.116;2023-12-07T12:44:59;101706.41;;;2.59;100.00
29535;BME280;72082;52.650;8.116;2023-12-07T12:47:25;101704.75;;;2.59;100.00
29535;BME280;72082;52.650;8.116;2023-12-07T12:49:50;101696.31;;;2.59;100.00
29535;BME280;72082;52.650;8.116;2023-12-07T12:52:16;101687.06;;;2.59;100.00
29535;BME280;72082;52.650;8.116;2023-12-07T12:54:44;101677.81;;;2.60;100.00